createdAt,value
2023-08-12T00:08:50.136Z,18.5
2023-08-12T00:21:50.173Z,18.8
2023-08-12T00:34:50.162Z,18.8
2023-08-12T00:47:50.176Z,18.2
2023-08-12T01:00:50.213Z,18.0
2023-08-12T01:13:50.259Z,17.9
2023-08-12T01:26:50.250Z,18.1
2023-08-12T01:39:50.280Z,17.8
2023-08-12T01:52:50.378Z,17.8
2023-08-12T02:05:50.428Z,17.8
2023-08-12T02:18:50.398Z,17.6
2023-08-12T02:31:50.544Z,17.5
2023-08-12T02:44:50.425Z,17.6
2023-08-12T02:57:50.445Z,17.7
2023-08-12T03:10:50.425Z,17.7
2023-08-12T03:23:50.461Z,17.7
2023-08-12T03:36:50.450Z,17.8
2023-08-12T03:49:50.459Z,17.5
2023-08-12T04:02:50.550Z,17.4
2023-08-12T04:15:50.542Z,17.2
2023-08-12T04:28:50.545Z,17.4
2023-08-12T04:41:50.562Z,17.6
2023-08-12T04:54:50.599Z,17.8
2023-08-12T05:07:50.619Z,18.1
2023-08-12T05:20:50.618Z,18.4
2023-08-12T05:33:50.705Z,18.7
2023-08-12T05:46:50.633Z,19.0
2023-08-12T05:59:50.650Z,19.3
2023-08-12T06:12:50.655Z,20.1
2023-08-12T06:25:50.665Z,20.8
2023-08-12T06:38:50.719Z,23.0
2023-08-12T06:51:50.714Z,25.4
2023-08-12T07:04:50.730Z,27.2
2023-08-12T07:17:50.836Z,28.5
2023-08-12T07:30:50.843Z,29.4
2023-08-12T07:43:50.841Z,28.1
2023-08-12T07:56:50.870Z,27.5
2023-08-12T08:09:50.885Z,28.6
2023-08-12T08:22:50.900Z,29.3
2023-08-12T08:35:50.943Z,29.6
2023-08-12T08:48:50.964Z,30.0
2023-08-12T09:01:50.985Z,30.6
2023-08-12T09:14:50.982Z,30.3
2023-08-12T09:27:50.980Z,30.3
2023-08-12T09:40:50.997Z,31.0
2023-08-12T09:53:50.991Z,30.8
2023-08-12T10:06:50.978Z,30.4
2023-08-12T10:19:51.017Z,31.6
2023-08-12T10:32:51.023Z,31.1
2023-08-12T10:45:51.045Z,31.0
2023-08-12T10:58:51.128Z,31.8
2023-08-12T11:11:51.045Z,31.7
2023-08-12T11:24:51.092Z,32.8
2023-08-12T11:37:51.110Z,33.0
2023-08-12T11:50:51.139Z,32.1
2023-08-12T12:03:51.176Z,30.9
2023-08-12T12:16:51.221Z,31.6
2023-08-12T12:29:51.179Z,32.0
2023-08-12T12:42:51.243Z,33.1
2023-08-12T12:55:51.262Z,33.2
2023-08-12T13:08:51.271Z,33.5
2023-08-12T13:21:51.292Z,33.2
2023-08-12T13:34:51.324Z,32.7
2023-08-12T13:47:51.342Z,34.5
2023-08-12T14:00:51.346Z,33.2
2023-08-12T14:13:51.334Z,32.5
2023-08-12T14:26:51.356Z,32.2
2023-08-12T14:39:51.469Z,31.2
2023-08-12T14:52:51.489Z,30.9
2023-08-12T15:05:51.500Z,31.1
2023-08-12T15:18:51.576Z,31.0
2023-08-12T15:31:51.559Z,33.7
2023-08-12T15:44:51.559Z,33.3
2023-08-12T15:57:51.590Z,31.9
2023-08-12T16:10:51.586Z,31.7
2023-08-12T16:23:51.621Z,32.4
2023-08-12T16:36:58.843Z,32.6
2023-08-12T16:49:51.608Z,32.1
2023-08-12T17:02:51.652Z,31.6
2023-08-12T17:15:51.667Z,28.8
2023-08-12T17:28:51.688Z,28.1
2023-08-12T17:41:51.741Z,27.3
2023-08-12T17:54:51.715Z,26.3
2023-08-12T18:07:51.982Z,25.6
2023-08-12T18:20:51.769Z,25.0
2023-08-12T18:33:51.805Z,24.5
2023-08-12T18:46:51.804Z,24.0
2023-08-12T18:59:51.825Z,23.7
2023-08-12T19:12:51.879Z,23.7
2023-08-12T19:25:51.892Z,23.6
2023-08-12T19:38:51.891Z,23.2
2023-08-12T19:51:51.929Z,22.6
2023-08-12T20:04:51.937Z,22.4
2023-08-12T20:17:51.963Z,22.4
2023-08-12T20:30:51.951Z,22.2
2023-08-12T20:43:51.981Z,21.9
2023-08-12T20:56:52.028Z,21.8
2023-08-12T21:09:52.111Z,21.6
2023-08-12T21:22:52.143Z,21.5
2023-08-12T21:35:52.130Z,21.2
2023-08-12T21:48:52.128Z,21.0
2023-08-12T22:01:52.145Z,20.9
2023-08-12T22:14:52.177Z,20.9
2023-08-12T22:27:52.211Z,20.8
2023-08-12T22:40:52.239Z,20.7
2023-08-12T22:53:52.302Z,20.7
2023-08-12T23:06:52.539Z,20.7
2023-08-12T23:19:52.331Z,20.9
2023-08-12T23:32:52.333Z,21.1
2023-08-12T23:45:52.404Z,21.1
2023-08-12T23:58:52.370Z,21.2
